Eagle — WBP2187 — position and weather

sailwx.info

Track history (hours):
 
Tides and Currents Weather Stations Pressure Air Temp Water Temp Dewpoint Dewpoint Depression Visibility Wind Speed Wind Dir Waves Ship Positions

Eagle

Owner: Harley Marine Services, INC, SEATTLE, WA. More information available from US FCC via Universal Licensing System and Coast Guard Vessel Documentation Center.

Last reported at 2016-Aug-28 07:16 UTC. Time now 2016-Aug-28 10:22 UTC.
Position N 33°44' W 118°16'.

Length 32 m; draft 4 m.

Type: Tow > 200 m length. MMSI: 366978690.

Date/timePositionNaut miles runAvg speedWind from/ knotsBaromVisibWave heightAir tempDewpointWater temp
2016-Aug-28 07:16N 33°44' W 118°16'0 0.0
2016-Aug-27 15:15N 33°44' W 118°16'0 0.0
2016-Aug-27 14:27N 33°44' W 118°16'2 2.4
2016-Aug-27 13:31N 33°44' W 118°13'2 2.2
2016-Aug-27 12:30N 33°44' W 118°16'0 0.0
2016-Aug-27 11:23N 33°44' W 118°16'0 0.0
2016-Aug-27 10:24N 33°44' W 118°16'0 0.0
2016-Aug-26 19:32N 33°44' W 118°16'0 0.0
2016-Aug-26 18:22N 33°44' W 118°16'0 0.0
2016-Aug-26 17:33N 33°44' W 118°16'0 0.0
2016-Aug-26 15:33N 33°44' W 118°16'0 0.0
2016-Aug-26 14:24N 33°44' W 118°16'0 0.0
2016-Aug-26 13:20N 33°44' W 118°16'0 0.0
2016-Aug-26 12:25N 33°44' W 118°16'0 0.0
2016-Aug-26 11:33N 33°44' W 118°16'0 0.0
2016-Aug-26 10:33N 33°44' W 118°16'0 0.0
2016-Aug-26 09:27N 33°44' W 118°16'0 0.0
2016-Aug-26 08:32N 33°44' W 118°16'0 0.0
2016-Aug-26 07:32N 33°44' W 118°16'0 0.0
2016-Aug-26 06:29N 33°44' W 118°16'0 0.0
2016-Aug-26 04:33N 33°44' W 118°16'0 0.0
2016-Aug-26 03:33N 33°44' W 118°16'0 0.0
2016-Aug-26 02:33N 33°44' W 118°16'0 0.0
2016-Aug-26 01:34N 33°44' W 118°16'0 0.0
2016-Aug-26 00:33N 33°44' W 118°16'0 0.0
2016-Aug-25 23:33N 33°44' W 118°16'0 0.0
2016-Aug-25 22:27N 33°44' W 118°16'0 0.0
2016-Aug-25 21:33N 33°44' W 118°16'0 0.0
2016-Aug-25 20:08N 33°44' W 118°16'0 0.0
2016-Aug-25 17:33N 33°44' W 118°16'0 0.0
2016-Aug-25 16:33N 33°44' W 118°16'0 0.0
2016-Aug-25 15:32N 33°44' W 118°16'0 0.0
2016-Aug-25 14:32N 33°44' W 118°16'0 0.0
2016-Aug-25 12:19N 33°44' W 118°16'0 0.0
2016-Aug-25 11:16N 33°44' W 118°16'0 0.0
2016-Aug-25 10:32N 33°44' W 118°16'0 0.0
2016-Aug-25 09:26N 33°44' W 118°16'0 0.0
2016-Aug-25 08:23N 33°44' W 118°16'0 0.0
2016-Aug-25 07:33N 33°44' W 118°16'0 0.0
2016-Aug-25 04:33N 33°44' W 118°16'0 0.0
2016-Aug-25 03:33N 33°44' W 118°16'0 0.0
2016-Aug-25 02:33N 33°44' W 118°16'0 0.0
2016-Aug-25 01:33N 33°44' W 118°16'0 0.0
2016-Aug-25 00:33N 33°44' W 118°16'0 0.0
2016-Aug-24 23:33N 33°44' W 118°16'1 1.5
2016-Aug-24 22:33N 33°43' W 118°14'5 4.6
2016-Aug-24 21:33N 33°44' W 118°09'5 5.2
2016-Aug-24 20:33N 33°44' W 118°15'0 0.2
2016-Aug-24 19:10N 33°44' W 118°16'0 0.0
2016-Aug-24 18:07N 33°44' W 118°16'0 0.0
2016-Aug-24 17:33N 33°44' W 118°16'0 0.0
2016-Aug-24 16:33N 33°44' W 118°16'0 0.0
2016-Aug-24 15:34N 33°44' W 118°16'0 0.0
2016-Aug-24 14:33N 33°44' W 118°16'0 0.0
2016-Aug-24 13:33N 33°44' W 118°16'0 0.0
2016-Aug-24 12:33N 33°44' W 118°16'0 0.0
2016-Aug-24 11:33N 33°44' W 118°16'0 0.0
2016-Aug-24 10:34N 33°44' W 118°16'0 0.0
2016-Aug-24 09:34N 33°44' W 118°16'0 0.0
2016-Aug-24 08:32N 33°44' W 118°16'0 0.0
2016-Aug-24 07:33N 33°44' W 118°16'0 0.0
2016-Aug-24 06:33N 33°44' W 118°16'0 0.0
2016-Aug-24 04:33N 33°44' W 118°16'0 0.0
2016-Aug-24 03:33N 33°44' W 118°16'0 0.0
2016-Aug-24 02:33N 33°44' W 118°16'0 0.0
2016-Aug-24 01:34N 33°44' W 118°16'0 0.0
2016-Aug-24 00:34N 33°44' W 118°16'0 0.0
2016-Aug-23 23:33N 33°44' W 118°16'0 0.0
2016-Aug-23 22:33N 33°44' W 118°16'0 0.0
2016-Aug-23 21:34N 33°44' W 118°16'0 0.0
2016-Aug-23 20:33N 33°44' W 118°16'0 0.0
2016-Aug-23 19:33N 33°44' W 118°16'0 0.0
2016-Aug-23 18:27N 33°44' W 118°16'0 0.0
2016-Aug-23 17:33N 33°44' W 118°16'0 0.0
2016-Aug-23 16:33N 33°44' W 118°16'0 0.0
2016-Aug-23 15:33N 33°44' W 118°16'0 0.0
2016-Aug-23 14:33N 33°44' W 118°16'0 0.0
2016-Aug-23 13:33N 33°44' W 118°16'0 0.0
2016-Aug-23 12:34N 33°44' W 118°16'0 0.0
2016-Aug-23 11:31N 33°44' W 118°16'0 0.0
2016-Aug-23 10:34N 33°44' W 118°16'0 0.0
2016-Aug-23 09:34N 33°44' W 118°16'0 0.0
2016-Aug-23 08:34N 33°44' W 118°16'0 0.0
2016-Aug-23 07:33N 33°44' W 118°16'0 0.0
2016-Aug-23 06:33N 33°44' W 118°16'0 0.0
2016-Aug-23 05:33N 33°44' W 118°16'0 0.0
2016-Aug-23 04:33N 33°44' W 118°16'0 0.0
2016-Aug-23 03:33N 33°44' W 118°16'0 0.0
2016-Aug-23 02:34N 33°44' W 118°16'0 0.0
2016-Aug-23 01:33N 33°44' W 118°16'0 0.0
2016-Aug-23 00:33N 33°44' W 118°16'0 0.0
2016-Aug-22 23:33N 33°44' W 118°16'0 0.0
2016-Aug-22 22:33N 33°44' W 118°16'0 0.0
2016-Aug-22 21:33N 33°44' W 118°16'0 0.0
2016-Aug-22 20:34N 33°44' W 118°16'0 0.0
2016-Aug-22 19:33N 33°44' W 118°16'0 0.0
2016-Aug-22 18:31N 33°44' W 118°16'0 0.0
2016-Aug-22 17:31N 33°44' W 118°16'0 0.0
2016-Aug-22 16:33N 33°44' W 118°16'0 0.0
2016-Aug-22 15:33N 33°44' W 118°16'0 0.0
2016-Aug-22 14:33N 33°44' W 118°16'0 0.0
2016-Aug-22 13:33N 33°44' W 118°16'0 0.0
2016-Aug-22 12:33N 33°44' W 118°16'0 0.0
2016-Aug-22 11:33N 33°44' W 118°16'0 0.0
2016-Aug-22 10:33N 33°44' W 118°16'0 0.0
2016-Aug-22 09:34N 33°44' W 118°16'0 0.0
2016-Aug-22 08:33N 33°44' W 118°16'0 0.0
2016-Aug-22 07:34N 33°44' W 118°16'0 0.0
2016-Aug-22 06:33N 33°44' W 118°16'0 0.0
2016-Aug-22 05:33N 33°44' W 118°16'0 0.0
2016-Aug-22 04:34N 33°44' W 118°16'0 0.0
2016-Aug-22 03:33N 33°44' W 118°16'0 0.0
2016-Aug-22 02:33N 33°44' W 118°16'0 0.0
2016-Aug-22 01:33N 33°44' W 118°16'0 0.0
2016-Aug-22 00:34N 33°44' W 118°16'0 0.0
2016-Aug-21 23:34N 33°44' W 118°16'0 0.0
2016-Aug-21 22:34N 33°44' W 118°16'0 0.0
2016-Aug-21 21:33N 33°44' W 118°16'0 0.0
2016-Aug-21 20:33N 33°44' W 118°16'0 0.0
2016-Aug-21 19:33N 33°44' W 118°16'0 0.0
2016-Aug-21 18:33N 33°44' W 118°16'0 0.0
2016-Aug-21 17:33N 33°44' W 118°16'0 0.0
2016-Aug-21 16:33N 33°44' W 118°16'0 0.0
2016-Aug-21 15:33N 33°44' W 118°16'0 0.0
2016-Aug-21 14:33N 33°44' W 118°16'0 0.0
2016-Aug-21 13:33N 33°44' W 118°16'0 0.0
2016-Aug-21 12:33N 33°44' W 118°16'0 0.0
2016-Aug-21 11:30N 33°44' W 118°16'0 0.0
2016-Aug-21 10:33N 33°44' W 118°16'0 0.0
2016-Aug-21 09:33N 33°44' W 118°16'0 0.0
2016-Aug-21 08:33N 33°44' W 118°16'0 0.0
2016-Aug-21 07:33N 33°44' W 118°16'0 0.0
2016-Aug-21 06:33N 33°44' W 118°16'0 0.0
2016-Aug-21 05:33N 33°44' W 118°16'0 0.0
2016-Aug-21 04:33N 33°44' W 118°16'0 0.0
2016-Aug-21 03:33N 33°44' W 118°16'0 0.0
2016-Aug-21 02:33N 33°44' W 118°16'0 0.0
2016-Aug-21 01:33N 33°44' W 118°16'0 0.0
2016-Aug-21 00:33N 33°44' W 118°16'0 0.0
2016-Aug-20 23:32N 33°44' W 118°16'0 0.0
2016-Aug-20 22:31N 33°44' W 118°16'0 0.0
2016-Aug-20 21:33N 33°44' W 118°16'0 0.0
2016-Aug-20 20:34N 33°44' W 118°16'0 0.0
2016-Aug-20 19:32N 33°44' W 118°16'0 0.0
2016-Aug-20 18:16N 33°44' W 118°16'0 0.0
2016-Aug-20 17:33N 33°44' W 118°16'0 0.0
2016-Aug-20 16:33N 33°44' W 118°16'0 0.0
2016-Aug-20 15:34N 33°44' W 118°16'0 0.0
2016-Aug-20 14:31N 33°44' W 118°16'0 0.0
2016-Aug-20 13:33N 33°44' W 118°16'0 0.0
2016-Aug-20 12:32N 33°44' W 118°16'0 0.0
2016-Aug-20 11:29N 33°44' W 118°16'0 0.0
2016-Aug-20 10:33N 33°44' W 118°16'0 0.0
2016-Aug-20 09:31N 33°44' W 118°16'0 0.0
2016-Aug-20 08:33N 33°44' W 118°16'0 0.0
2016-Aug-20 07:33N 33°44' W 118°16'0 0.0
2016-Aug-20 06:33N 33°44' W 118°16'0 0.0
2016-Aug-20 05:31N 33°44' W 118°16'0 0.0
2016-Aug-20 04:30N 33°44' W 118°16'0 0.0
2016-Aug-20 03:33N 33°44' W 118°16'0 0.0
2016-Aug-20 02:34N 33°44' W 118°16'0 0.0
2016-Aug-20 01:33N 33°44' W 118°16'0 0.0
2016-Aug-20 00:33N 33°44' W 118°16'0 0.0
2016-Aug-19 23:34N 33°44' W 118°16'0 0.0
2016-Aug-19 22:33N 33°44' W 118°16'0 0.0
2016-Aug-19 21:33N 33°44' W 118°16'0 0.0
2016-Aug-19 20:33N 33°44' W 118°16'0 0.0
2016-Aug-19 19:33N 33°44' W 118°16'0 0.0
2016-Aug-19 18:34N 33°44' W 118°16'0 0.0
2016-Aug-19 17:31N 33°44' W 118°16'0 0.0
2016-Aug-19 16:33N 33°44' W 118°16'0 0.0
2016-Aug-19 15:32N 33°44' W 118°16'0 0.0
2016-Aug-19 14:33N 33°44' W 118°16'0 0.0
2016-Aug-19 13:33N 33°44' W 118°16'0 0.0
2016-Aug-19 12:33N 33°44' W 118°16'0 0.0
2016-Aug-19 11:32N 33°44' W 118°16'0 0.0
2016-Aug-19 10:32N 33°44' W 118°16'0 0.0
2016-Aug-19 09:32N 33°44' W 118°16'0 0.0
2016-Aug-19 08:33N 33°44' W 118°16'0 0.0
2016-Aug-19 07:33N 33°44' W 118°16'0 0.0
2016-Aug-19 06:33N 33°44' W 118°16'0 0.0
2016-Aug-19 05:33N 33°44' W 118°16'0 0.0
2016-Aug-19 04:33N 33°44' W 118°16'0 0.0
2016-Aug-19 03:33N 33°44' W 118°16'0 0.0
2016-Aug-19 02:33N 33°44' W 118°16'0 0.0
2016-Aug-19 01:33N 33°44' W 118°16'0 0.0
2016-Aug-19 00:33N 33°44' W 118°16'0 0.0
2016-Aug-18 23:31N 33°44' W 118°16'0 0.0
2016-Aug-18 22:34N 33°44' W 118°16'0 0.0
2016-Aug-18 21:33N 33°44' W 118°16'0 0.0
2016-Aug-18 20:33N 33°44' W 118°16'0 0.0
2016-Aug-18 19:33N 33°44' W 118°16'0 0.0
2016-Aug-18 18:33N 33°44' W 118°16'0 0.0
2016-Aug-18 17:32N 33°44' W 118°16'0 0.0
2016-Aug-18 16:32N 33°44' W 118°16'0 0.0
2016-Aug-18 15:32N 33°44' W 118°16'0 0.0
2016-Aug-18 14:33N 33°44' W 118°16'0 0.0
2016-Aug-18 13:33N 33°44' W 118°16'0 0.0
2016-Aug-18 12:33N 33°44' W 118°16'0 0.0
2016-Aug-18 11:33N 33°44' W 118°16'0 0.0
2016-Aug-18 10:33N 33°44' W 118°16'0 0.0
2016-Aug-18 09:33N 33°44' W 118°16'0 0.0
2016-Aug-18 08:33N 33°44' W 118°16'0 0.0
2016-Aug-18 07:34N 33°44' W 118°16'  
Track history (hours):
 
Tides and Currents Weather Stations Pressure Air Temp Water Temp Dewpoint Dewpoint Depression Visibility Wind Speed Wind Dir Waves Ship Positions

Eagle

Owner: Harley Marine Services, INC, SEATTLE, WA. More information available from US FCC via Universal Licensing System and Coast Guard Vessel Documentation Center.

Last reported at 2016-Aug-28 07:16 UTC. Time now 2016-Aug-28 10:22 UTC.
Position N 33°44' W 118°16'.

Length 32 m; draft 4 m.

Type: Tow > 200 m length. MMSI: 366978690.

Date/timePositionNaut miles runAvg speedWind from/ knotsBaromVisibWave heightAir tempDewpointWater temp
2016-Aug-28 07:16N 33°44' W 118°16'0 0.0
2016-Aug-27 15:15N 33°44' W 118°16'0 0.0
2016-Aug-27 14:27N 33°44' W 118°16'2 2.4
2016-Aug-27 13:31N 33°44' W 118°13'2 2.2
2016-Aug-27 12:30N 33°44' W 118°16'0 0.0
2016-Aug-27 11:23N 33°44' W 118°16'0 0.0
2016-Aug-27 10:24N 33°44' W 118°16'0 0.0
2016-Aug-26 19:32N 33°44' W 118°16'0 0.0
2016-Aug-26 18:22N 33°44' W 118°16'0 0.0
2016-Aug-26 17:33N 33°44' W 118°16'0 0.0
2016-Aug-26 15:33N 33°44' W 118°16'0 0.0
2016-Aug-26 14:24N 33°44' W 118°16'0 0.0
2016-Aug-26 13:20N 33°44' W 118°16'0 0.0
2016-Aug-26 12:25N 33°44' W 118°16'0 0.0
2016-Aug-26 11:33N 33°44' W 118°16'0 0.0
2016-Aug-26 10:33N 33°44' W 118°16'0 0.0
2016-Aug-26 09:27N 33°44' W 118°16'0 0.0
2016-Aug-26 08:32N 33°44' W 118°16'0 0.0
2016-Aug-26 07:32N 33°44' W 118°16'0 0.0
2016-Aug-26 06:29N 33°44' W 118°16'0 0.0
2016-Aug-26 04:33N 33°44' W 118°16'0 0.0
2016-Aug-26 03:33N 33°44' W 118°16'0 0.0
2016-Aug-26 02:33N 33°44' W 118°16'0 0.0
2016-Aug-26 01:34N 33°44' W 118°16'0 0.0
2016-Aug-26 00:33N 33°44' W 118°16'0 0.0
2016-Aug-25 23:33N 33°44' W 118°16'0 0.0
2016-Aug-25 22:27N 33°44' W 118°16'0 0.0
2016-Aug-25 21:33N 33°44' W 118°16'0 0.0
2016-Aug-25 20:08N 33°44' W 118°16'0 0.0
2016-Aug-25 17:33N 33°44' W 118°16'0 0.0
2016-Aug-25 16:33N 33°44' W 118°16'0 0.0
2016-Aug-25 15:32N 33°44' W 118°16'0 0.0
2016-Aug-25 14:32N 33°44' W 118°16'0 0.0
2016-Aug-25 12:19N 33°44' W 118°16'0 0.0
2016-Aug-25 11:16N 33°44' W 118°16'0 0.0
2016-Aug-25 10:32N 33°44' W 118°16'0 0.0
2016-Aug-25 09:26N 33°44' W 118°16'0 0.0
2016-Aug-25 08:23N 33°44' W 118°16'0 0.0
2016-Aug-25 07:33N 33°44' W 118°16'0 0.0
2016-Aug-25 04:33N 33°44' W 118°16'0 0.0
2016-Aug-25 03:33N 33°44' W 118°16'0 0.0
2016-Aug-25 02:33N 33°44' W 118°16'0 0.0
2016-Aug-25 01:33N 33°44' W 118°16'0 0.0
2016-Aug-25 00:33N 33°44' W 118°16'0 0.0
2016-Aug-24 23:33N 33°44' W 118°16'1 1.5
2016-Aug-24 22:33N 33°43' W 118°14'5 4.6
2016-Aug-24 21:33N 33°44' W 118°09'5 5.2
2016-Aug-24 20:33N 33°44' W 118°15'0 0.2
2016-Aug-24 19:10N 33°44' W 118°16'0 0.0
2016-Aug-24 18:07N 33°44' W 118°16'0 0.0
2016-Aug-24 17:33N 33°44' W 118°16'0 0.0
2016-Aug-24 16:33N 33°44' W 118°16'0 0.0
2016-Aug-24 15:34N 33°44' W 118°16'0 0.0
2016-Aug-24 14:33N 33°44' W 118°16'0 0.0
2016-Aug-24 13:33N 33°44' W 118°16'0 0.0
2016-Aug-24 12:33N 33°44' W 118°16'0 0.0
2016-Aug-24 11:33N 33°44' W 118°16'0 0.0
2016-Aug-24 10:34N 33°44' W 118°16'0 0.0
2016-Aug-24 09:34N 33°44' W 118°16'0 0.0
2016-Aug-24 08:32N 33°44' W 118°16'0 0.0
2016-Aug-24 07:33N 33°44' W 118°16'0 0.0
2016-Aug-24 06:33N 33°44' W 118°16'0 0.0
2016-Aug-24 04:33N 33°44' W 118°16'0 0.0
2016-Aug-24 03:33N 33°44' W 118°16'0 0.0
2016-Aug-24 02:33N 33°44' W 118°16'0 0.0
2016-Aug-24 01:34N 33°44' W 118°16'0 0.0
2016-Aug-24 00:34N 33°44' W 118°16'0 0.0
2016-Aug-23 23:33N 33°44' W 118°16'0 0.0
2016-Aug-23 22:33N 33°44' W 118°16'0 0.0
2016-Aug-23 21:34N 33°44' W 118°16'0 0.0
2016-Aug-23 20:33N 33°44' W 118°16'0 0.0
2016-Aug-23 19:33N 33°44' W 118°16'0 0.0
2016-Aug-23 18:27N 33°44' W 118°16'0 0.0
2016-Aug-23 17:33N 33°44' W 118°16'0 0.0
2016-Aug-23 16:33N 33°44' W 118°16'0 0.0
2016-Aug-23 15:33N 33°44' W 118°16'0 0.0
2016-Aug-23 14:33N 33°44' W 118°16'0 0.0
2016-Aug-23 13:33N 33°44' W 118°16'0 0.0
2016-Aug-23 12:34N 33°44' W 118°16'0 0.0
2016-Aug-23 11:31N 33°44' W 118°16'0 0.0
2016-Aug-23 10:34N 33°44' W 118°16'0 0.0
2016-Aug-23 09:34N 33°44' W 118°16'0 0.0
2016-Aug-23 08:34N 33°44' W 118°16'0 0.0
2016-Aug-23 07:33N 33°44' W 118°16'0 0.0
2016-Aug-23 06:33N 33°44' W 118°16'0 0.0
2016-Aug-23 05:33N 33°44' W 118°16'0 0.0
2016-Aug-23 04:33N 33°44' W 118°16'0 0.0
2016-Aug-23 03:33N 33°44' W 118°16'0 0.0
2016-Aug-23 02:34N 33°44' W 118°16'0 0.0
2016-Aug-23 01:33N 33°44' W 118°16'0 0.0
2016-Aug-23 00:33N 33°44' W 118°16'0 0.0
2016-Aug-22 23:33N 33°44' W 118°16'0 0.0
2016-Aug-22 22:33N 33°44' W 118°16'0 0.0
2016-Aug-22 21:33N 33°44' W 118°16'0 0.0
2016-Aug-22 20:34N 33°44' W 118°16'0 0.0
2016-Aug-22 19:33N 33°44' W 118°16'0 0.0
2016-Aug-22 18:31N 33°44' W 118°16'0 0.0
2016-Aug-22 17:31N 33°44' W 118°16'0 0.0
2016-Aug-22 16:33N 33°44' W 118°16'0 0.0
2016-Aug-22 15:33N 33°44' W 118°16'0 0.0
2016-Aug-22 14:33N 33°44' W 118°16'0 0.0
2016-Aug-22 13:33N 33°44' W 118°16'0 0.0
2016-Aug-22 12:33N 33°44' W 118°16'0 0.0
2016-Aug-22 11:33N 33°44' W 118°16'0 0.0
2016-Aug-22 10:33N 33°44' W 118°16'0 0.0
2016-Aug-22 09:34N 33°44' W 118°16'0 0.0
2016-Aug-22 08:33N 33°44' W 118°16'0 0.0
2016-Aug-22 07:34N 33°44' W 118°16'0 0.0
2016-Aug-22 06:33N 33°44' W 118°16'0 0.0
2016-Aug-22 05:33N 33°44' W 118°16'0 0.0
2016-Aug-22 04:34N 33°44' W 118°16'0 0.0
2016-Aug-22 03:33N 33°44' W 118°16'0 0.0
2016-Aug-22 02:33N 33°44' W 118°16'0 0.0
2016-Aug-22 01:33N 33°44' W 118°16'0 0.0
2016-Aug-22 00:34N 33°44' W 118°16'0 0.0
2016-Aug-21 23:34N 33°44' W 118°16'0 0.0
2016-Aug-21 22:34N 33°44' W 118°16'0 0.0
2016-Aug-21 21:33N 33°44' W 118°16'0 0.0
2016-Aug-21 20:33N 33°44' W 118°16'0 0.0
2016-Aug-21 19:33N 33°44' W 118°16'0 0.0
2016-Aug-21 18:33N 33°44' W 118°16'0 0.0
2016-Aug-21 17:33N 33°44' W 118°16'0 0.0
2016-Aug-21 16:33N 33°44' W 118°16'0 0.0
2016-Aug-21 15:33N 33°44' W 118°16'0 0.0
2016-Aug-21 14:33N 33°44' W 118°16'0 0.0
2016-Aug-21 13:33N 33°44' W 118°16'0 0.0
2016-Aug-21 12:33N 33°44' W 118°16'0 0.0
2016-Aug-21 11:30N 33°44' W 118°16'0 0.0
2016-Aug-21 10:33N 33°44' W 118°16'0 0.0
2016-Aug-21 09:33N 33°44' W 118°16'0 0.0
2016-Aug-21 08:33N 33°44' W 118°16'0 0.0
2016-Aug-21 07:33N 33°44' W 118°16'0 0.0
2016-Aug-21 06:33N 33°44' W 118°16'0 0.0
2016-Aug-21 05:33N 33°44' W 118°16'0 0.0
2016-Aug-21 04:33N 33°44' W 118°16'0 0.0
2016-Aug-21 03:33N 33°44' W 118°16'0 0.0
2016-Aug-21 02:33N 33°44' W 118°16'0 0.0
2016-Aug-21 01:33N 33°44' W 118°16'0 0.0
2016-Aug-21 00:33N 33°44' W 118°16'0 0.0
2016-Aug-20 23:32N 33°44' W 118°16'0 0.0
2016-Aug-20 22:31N 33°44' W 118°16'0 0.0
2016-Aug-20 21:33N 33°44' W 118°16'0 0.0
2016-Aug-20 20:34N 33°44' W 118°16'0 0.0
2016-Aug-20 19:32N 33°44' W 118°16'0 0.0
2016-Aug-20 18:16N 33°44' W 118°16'0 0.0
2016-Aug-20 17:33N 33°44' W 118°16'0 0.0
2016-Aug-20 16:33N 33°44' W 118°16'0 0.0
2016-Aug-20 15:34N 33°44' W 118°16'0 0.0
2016-Aug-20 14:31N 33°44' W 118°16'0 0.0
2016-Aug-20 13:33N 33°44' W 118°16'0 0.0
2016-Aug-20 12:32N 33°44' W 118°16'0 0.0
2016-Aug-20 11:29N 33°44' W 118°16'0 0.0
2016-Aug-20 10:33N 33°44' W 118°16'0 0.0
2016-Aug-20 09:31N 33°44' W 118°16'0 0.0
2016-Aug-20 08:33N 33°44' W 118°16'0 0.0
2016-Aug-20 07:33N 33°44' W 118°16'0 0.0
2016-Aug-20 06:33N 33°44' W 118°16'0 0.0
2016-Aug-20 05:31N 33°44' W 118°16'0 0.0
2016-Aug-20 04:30N 33°44' W 118°16'0 0.0
2016-Aug-20 03:33N 33°44' W 118°16'0 0.0
2016-Aug-20 02:34N 33°44' W 118°16'0 0.0
2016-Aug-20 01:33N 33°44' W 118°16'0 0.0
2016-Aug-20 00:33N 33°44' W 118°16'0 0.0
2016-Aug-19 23:34N 33°44' W 118°16'0 0.0
2016-Aug-19 22:33N 33°44' W 118°16'0 0.0
2016-Aug-19 21:33N 33°44' W 118°16'0 0.0
2016-Aug-19 20:33N 33°44' W 118°16'0 0.0
2016-Aug-19 19:33N 33°44' W 118°16'0 0.0
2016-Aug-19 18:34N 33°44' W 118°16'0 0.0
2016-Aug-19 17:31N 33°44' W 118°16'0 0.0
2016-Aug-19 16:33N 33°44' W 118°16'0 0.0
2016-Aug-19 15:32N 33°44' W 118°16'0 0.0
2016-Aug-19 14:33N 33°44' W 118°16'0 0.0
2016-Aug-19 13:33N 33°44' W 118°16'0 0.0
2016-Aug-19 12:33N 33°44' W 118°16'0 0.0
2016-Aug-19 11:32N 33°44' W 118°16'0 0.0
2016-Aug-19 10:32N 33°44' W 118°16'0 0.0
2016-Aug-19 09:32N 33°44' W 118°16'0 0.0
2016-Aug-19 08:33N 33°44' W 118°16'0 0.0
2016-Aug-19 07:33N 33°44' W 118°16'0 0.0
2016-Aug-19 06:33N 33°44' W 118°16'0 0.0
2016-Aug-19 05:33N 33°44' W 118°16'0 0.0
2016-Aug-19 04:33N 33°44' W 118°16'0 0.0
2016-Aug-19 03:33N 33°44' W 118°16'0 0.0
2016-Aug-19 02:33N 33°44' W 118°16'0 0.0
2016-Aug-19 01:33N 33°44' W 118°16'0 0.0
2016-Aug-19 00:33N 33°44' W 118°16'0 0.0
2016-Aug-18 23:31N 33°44' W 118°16'0 0.0
2016-Aug-18 22:34N 33°44' W 118°16'0 0.0
2016-Aug-18 21:33N 33°44' W 118°16'0 0.0
2016-Aug-18 20:33N 33°44' W 118°16'0 0.0
2016-Aug-18 19:33N 33°44' W 118°16'0 0.0
2016-Aug-18 18:33N 33°44' W 118°16'0 0.0
2016-Aug-18 17:32N 33°44' W 118°16'0 0.0
2016-Aug-18 16:32N 33°44' W 118°16'0 0.0
2016-Aug-18 15:32N 33°44' W 118°16'0 0.0
2016-Aug-18 14:33N 33°44' W 118°16'0 0.0
2016-Aug-18 13:33N 33°44' W 118°16'0 0.0
2016-Aug-18 12:33N 33°44' W 118°16'0 0.0
2016-Aug-18 11:33N 33°44' W 118°16'0 0.0
2016-Aug-18 10:33N 33°44' W 118°16'0 0.0
2016-Aug-18 09:33N 33°44' W 118°16'0 0.0
2016-Aug-18 08:33N 33°44' W 118°16'0 0.0
2016-Aug-18 07:34N 33°44' W 118°16'  

Dump ship's entire track history